createdAt,value
2022-10-21T00:04:17.197Z,11.38
2022-10-21T00:09:19.001Z,11.40
2022-10-21T00:14:20.946Z,11.42
2022-10-21T00:19:22.882Z,11.48
2022-10-21T00:24:24.771Z,11.50
2022-10-21T00:29:26.586Z,11.49
2022-10-21T00:34:30.885Z,11.44
2022-10-21T00:39:33.218Z,11.38
2022-10-21T00:44:35.998Z,11.34
2022-10-21T00:49:42.397Z,11.32
2022-10-21T00:54:47.015Z,11.33
2022-10-21T00:59:53.871Z,11.32
2022-10-21T01:04:59.810Z,11.30
2022-10-21T01:10:01.805Z,11.23
2022-10-21T01:15:31.017Z,11.20
2022-10-21T01:21:03.709Z,11.17
2022-10-21T01:26:14.517Z,11.15
2022-10-21T01:31:41.277Z,11.15
2022-10-21T01:36:57.860Z,11.12
2022-10-21T01:42:25.888Z,11.11
2022-10-21T01:47:34.089Z,11.07
2022-10-21T01:52:36.369Z,11.07
2022-10-21T01:57:44.594Z,11.06
2022-10-21T02:02:48.926Z,11.08
2022-10-21T02:07:51.059Z,11.05
2022-10-21T02:12:56.989Z,11.03
2022-10-21T02:18:08.033Z,11.04
2022-10-21T02:23:15.662Z,11.07
2022-10-21T02:28:19.268Z,11.06
2022-10-21T02:33:43.265Z,11.07
2022-10-21T02:38:49.615Z,11.06
2022-10-21T02:49:16.439Z,11.08
2022-10-21T02:54:18.233Z,11.08
2022-10-21T02:59:20.173Z,11.12
2022-10-21T03:04:22.127Z,11.18
2022-10-21T03:09:23.966Z,11.18
2022-10-21T03:14:25.733Z,11.16
2022-10-21T03:19:27.493Z,11.14
2022-10-21T03:24:29.329Z,11.14
2022-10-21T03:29:31.278Z,11.16
2022-10-21T03:34:33.066Z,11.20
2022-10-21T03:39:34.877Z,11.19
2022-10-21T03:44:36.736Z,11.15
2022-10-21T03:49:38.540Z,11.11
2022-10-21T03:54:40.537Z,11.03
2022-10-21T03:59:42.396Z,10.97
2022-10-21T04:04:44.816Z,10.94
2022-10-21T04:09:46.644Z,10.88
2022-10-21T04:14:48.423Z,10.82
2022-10-21T04:19:50.169Z,10.74
2022-10-21T04:24:52.187Z,10.72
2022-10-21T04:29:54.015Z,10.67
2022-10-21T04:34:55.798Z,10.64
2022-10-21T04:39:57.618Z,10.62
2022-10-21T04:44:59.424Z,10.61
2022-10-21T04:50:01.395Z,10.59
2022-10-21T04:55:03.927Z,10.55
2022-10-21T05:00:07.924Z,10.55
2022-10-21T05:05:10.236Z,10.56
2022-10-21T05:10:12.031Z,10.57
2022-10-21T05:15:14.777Z,10.55
2022-10-21T05:20:16.862Z,10.53
2022-10-21T05:25:19.631Z,10.49
2022-10-21T05:30:21.897Z,10.44
2022-10-21T05:35:23.748Z,10.40
2022-10-21T05:40:25.624Z,10.38
2022-10-21T05:45:27.752Z,10.35
2022-10-21T05:50:29.526Z,10.35
2022-10-21T05:55:31.365Z,10.33
2022-10-21T06:00:33.526Z,10.33
2022-10-21T06:05:35.494Z,10.33
2022-10-21T06:10:37.303Z,10.35
2022-10-21T06:15:39.128Z,10.37
2022-10-21T06:20:40.821Z,10.38
2022-10-21T06:26:00.158Z,10.43
2022-10-21T06:31:02.074Z,10.46
2022-10-21T06:36:04.751Z,10.52
2022-10-21T06:41:12.328Z,10.63
2022-10-21T06:46:16.334Z,10.71
2022-10-21T06:51:22.557Z,10.78
2022-10-21T06:56:26.616Z,10.81
2022-10-21T07:01:41.769Z,10.86
2022-10-21T07:06:55.367Z,10.93
2022-10-21T07:11:57.209Z,10.99
2022-10-21T07:16:59.121Z,11.06
2022-10-21T07:22:04.046Z,11.12
2022-10-21T07:27:06.271Z,11.21
2022-10-21T07:32:08.550Z,11.26
2022-10-21T07:37:10.540Z,11.31
2022-10-21T07:42:12.451Z,11.35
2022-10-21T07:47:14.378Z,11.41
2022-10-21T07:52:16.347Z,11.54
2022-10-21T07:57:18.315Z,11.71
2022-10-21T08:02:20.598Z,11.73
2022-10-21T08:07:22.881Z,11.72
2022-10-21T08:12:25.640Z,11.75
2022-10-21T08:17:27.818Z,11.82
2022-10-21T08:22:29.931Z,11.82
2022-10-21T08:27:31.912Z,11.84
2022-10-21T08:32:33.941Z,11.90
2022-10-21T08:37:35.845Z,12.05
2022-10-21T08:42:42.816Z,12.12
2022-10-21T08:47:49.796Z,12.22
2022-10-21T08:53:00.109Z,12.42
2022-10-21T08:58:03.520Z,12.53
2022-10-21T09:03:28.732Z,12.68
2022-10-21T09:08:42.656Z,12.71
2022-10-21T09:13:51.557Z,12.77
2022-10-21T09:19:02.630Z,12.88
2022-10-21T09:24:13.802Z,12.87
2022-10-21T09:29:15.680Z,12.84
2022-10-21T09:34:29.565Z,12.93
2022-10-21T09:39:42.254Z,12.93
2022-10-21T09:44:45.679Z,12.92
2022-10-21T09:50:06.873Z,12.93
2022-10-21T09:55:14.222Z,13.00
2022-10-21T10:00:16.302Z,13.04
2022-10-21T10:05:33.553Z,13.10
2022-10-21T10:10:35.762Z,13.14
2022-10-21T10:15:37.674Z,13.24
2022-10-21T10:20:39.610Z,13.31
2022-10-21T10:25:41.503Z,13.39
2022-10-21T10:30:43.540Z,13.44
2022-10-21T10:36:00.473Z,13.55
2022-10-21T10:41:18.724Z,13.70
2022-10-21T10:46:34.057Z,13.86
2022-10-21T10:51:36.460Z,14.06
2022-10-21T10:56:43.411Z,14.25
2022-10-21T11:01:54.222Z,14.39
2022-10-21T11:07:13.470Z,14.48
2022-10-21T11:12:25.490Z,14.55
2022-10-21T11:17:39.070Z,14.64
2022-10-21T11:23:00.461Z,14.63
2022-10-21T11:28:29.968Z,14.71
2022-10-21T11:33:45.274Z,14.76
2022-10-21T11:39:13.213Z,14.74
2022-10-21T11:44:52.683Z,14.74
2022-10-21T11:50:16.562Z,14.72
2022-10-21T11:55:41.467Z,14.70
2022-10-21T12:01:17.379Z,14.71
2022-10-21T12:06:19.595Z,14.69
2022-10-21T12:11:27.999Z,14.65
2022-10-21T12:16:34.180Z,14.62
2022-10-21T12:21:39.387Z,14.62
2022-10-21T12:26:51.888Z,14.62
2022-10-21T12:32:07.788Z,14.62
2022-10-21T12:37:46.782Z,14.58
2022-10-21T12:42:59.227Z,14.49
2022-10-21T12:48:02.015Z,14.41
2022-10-21T12:53:03.747Z,14.37
2022-10-21T12:58:17.289Z,14.31
2022-10-21T13:03:22.107Z,14.24
2022-10-21T13:08:27.595Z,14.21
2022-10-21T13:13:39.743Z,14.17
2022-10-21T13:18:51.389Z,14.16
2022-10-21T13:23:54.982Z,14.16
2022-10-21T13:29:02.542Z,14.12
2022-10-21T13:34:04.943Z,14.00
2022-10-21T13:39:35.792Z,13.86
2022-10-21T13:44:41.033Z,13.72
2022-10-21T13:49:50.823Z,13.64
2022-10-21T13:55:24.231Z,13.54
2022-10-21T14:00:30.115Z,13.44
2022-10-21T14:05:37.383Z,13.36
2022-10-21T14:10:47.173Z,13.27
2022-10-21T14:15:49.641Z,13.22
2022-10-21T14:20:53.705Z,13.16
2022-10-21T14:26:04.343Z,13.07
2022-10-21T14:31:09.193Z,12.98
2022-10-21T14:36:15.207Z,12.93
2022-10-21T14:41:22.269Z,13.00
2022-10-21T14:46:24.703Z,13.09
2022-10-21T14:51:28.023Z,13.14
2022-10-21T14:56:35.128Z,13.18
2022-10-21T15:01:43.045Z,13.18
2022-10-21T15:06:59.598Z,13.20
2022-10-21T15:12:18.773Z,13.17
2022-10-21T15:17:22.888Z,13.13
2022-10-21T15:22:29.161Z,13.09
2022-10-21T15:27:41.092Z,13.05
2022-10-21T15:32:45.212Z,13.05
2022-10-21T15:37:51.377Z,13.05
2022-10-21T15:42:53.313Z,13.04
2022-10-21T15:47:55.827Z,13.03
2022-10-21T15:52:57.820Z,12.97
2022-10-21T15:57:59.747Z,12.85
2022-10-21T16:03:02.196Z,12.78
2022-10-21T16:08:04.677Z,12.72
2022-10-21T16:13:06.688Z,12.72
2022-10-21T16:18:14.141Z,12.69
2022-10-21T16:23:15.962Z,12.72
2022-10-21T16:28:17.781Z,12.71
2022-10-21T16:33:19.602Z,12.65
2022-10-21T16:38:21.391Z,12.59
2022-10-21T16:43:24.067Z,12.53
2022-10-21T16:48:26.047Z,12.50
2022-10-21T16:53:29.187Z,12.51
2022-10-21T16:58:31.349Z,12.54
2022-10-21T17:03:34.022Z,12.54
2022-10-21T17:08:36.474Z,12.54
2022-10-21T17:13:38.450Z,12.58
2022-10-21T17:18:40.349Z,12.64
2022-10-21T17:23:42.253Z,12.69
2022-10-21T17:28:44.749Z,12.71
2022-10-21T17:33:47.412Z,12.72
2022-10-21T17:38:49.689Z,12.73
2022-10-21T17:43:51.551Z,12.72
2022-10-21T17:48:55.693Z,12.70
2022-10-21T17:53:57.516Z,12.70
2022-10-21T17:59:01.345Z,12.68
2022-10-21T18:04:03.709Z,12.72
2022-10-21T18:09:08.542Z,12.78
2022-10-21T18:14:10.867Z,12.84
2022-10-21T18:19:12.924Z,12.88
2022-10-21T18:24:14.710Z,12.94
2022-10-21T18:29:16.851Z,12.98
2022-10-21T18:34:18.763Z,13.01
2022-10-21T18:39:20.754Z,13.01
2022-10-21T18:44:22.567Z,13.03
2022-10-21T18:49:24.359Z,13.04
2022-10-21T18:54:26.163Z,13.05
2022-10-21T18:59:27.962Z,13.07
2022-10-21T19:04:29.929Z,13.10
2022-10-21T19:09:31.814Z,13.13
2022-10-21T19:14:34.080Z,13.17
2022-10-21T19:19:39.345Z,13.21
2022-10-21T19:24:41.749Z,13.25
2022-10-21T19:29:43.584Z,13.29
2022-10-21T19:34:45.440Z,13.33
2022-10-21T19:39:47.222Z,13.36
2022-10-21T19:44:48.931Z,13.39
2022-10-21T19:49:50.899Z,13.43
2022-10-21T19:54:53.079Z,13.47
2022-10-21T19:59:56.265Z,13.49
2022-10-21T20:04:58.057Z,13.51
2022-10-21T20:09:59.780Z,13.52
2022-10-21T20:15:01.563Z,13.54
2022-10-21T20:20:04.053Z,13.56
2022-10-21T20:25:06.167Z,13.56
2022-10-21T20:30:09.588Z,13.58
2022-10-21T20:35:11.380Z,13.60
2022-10-21T20:40:13.207Z,13.61
2022-10-21T20:45:15.079Z,13.64
2022-10-21T20:50:16.941Z,13.67
2022-10-21T20:55:19.624Z,13.68
2022-10-21T21:00:21.341Z,13.69
2022-10-21T21:05:23.104Z,13.70
2022-10-21T21:10:24.894Z,13.70
2022-10-21T21:15:26.874Z,13.70
2022-10-21T21:20:28.646Z,13.68
2022-10-21T21:25:30.475Z,13.66
2022-10-21T21:30:32.204Z,13.65
2022-10-21T21:35:33.911Z,13.63
2022-10-21T21:40:35.607Z,13.60
2022-10-21T21:45:37.537Z,13.57
2022-10-21T21:50:40.340Z,13.60
2022-10-21T21:55:42.491Z,13.64
2022-10-21T22:00:44.426Z,13.68
2022-10-21T22:05:46.274Z,13.74
2022-10-21T22:10:48.066Z,13.78
2022-10-21T22:15:49.879Z,13.82
2022-10-21T22:20:51.904Z,13.84
2022-10-21T22:25:54.627Z,13.88
2022-10-21T22:31:04.592Z,13.93
2022-10-21T22:36:06.679Z,13.94
2022-10-21T22:41:12.260Z,13.97
2022-10-21T22:46:33.251Z,13.98
2022-10-21T22:51:36.110Z,13.99
2022-10-21T22:56:38.747Z,13.99
2022-10-21T23:01:40.619Z,13.99
2022-10-21T23:06:42.467Z,13.95
2022-10-21T23:11:46.744Z,13.92
2022-10-21T23:16:48.839Z,13.90
2022-10-21T23:21:50.564Z,13.86
2022-10-21T23:26:52.800Z,13.81
2022-10-21T23:31:57.608Z,13.74
2022-10-21T23:36:59.397Z,13.67
2022-10-21T23:42:01.240Z,13.60
2022-10-21T23:47:03.083Z,13.56
2022-10-21T23:52:06.262Z,13.53
2022-10-21T23:57:08.241Z,13.57
